Alamo, California
Current Conditions -  °F | °C
As of 1:29 PM on Friday 19 Dec 2014 (Local Time) from KCCR Reporting Station
Light Rain Light Rain  
Wind Chill: 56°   Ceiling: 2500
Heat Index: 56°   Visibility: 7mi
Dew Point: 53°   Wind: 9mph
Humidity: 90%   Direction: 350°N
Pressure: 30.12"   Gusts: NA
Location:  37.85°N, 122.03°W
Report Text: KCCR 192129Z 35008KT 7SM -RA SCT015 BKN025 OVC050 13/12 A3012 RMK AO2 P0000 T01330117
Loading
Personal Weather Stations






























Interactive Weather Map New forecast layout! Learn more

10-Day Weather Forecast

Advertisements
Track Severe Weather on mobile